x

North Equatorial One- 470 Nm East Of Martinique (41040) Wave Buoy

10:50am - Thu 25th Aug 2016 All times are UTC.

  • Sig Wave height 3.9ft
  • Swell Direction
  • Peak Period 8s
  • Average Period 5s
  • Wind
    7mph
  • Sea Temp 83°f
  • Air Temp 82°f
  • Sea Pressure 1013.7mb

More Historic Weather Station data

Upgrade to MSW Pro to gain access to the past 30 days of data for over 8000 Wavebouys and Weather Stations around the globe.

Join Pro

Comparision Forecast

View Surf forecast
   
Thu 08/25 10:50am 4ft 8s 5s 7
mph
1013.7mb 83f 82f
9:50am 4.5ft 7s 6s 9
mph
1013.5mb 83f 81f
8:50am 4.5ft 7s 6s 7 9 mph 1013.3mb 83f 81f
7:50am 4ft 8s 5s 9 11 mph 1013mb 83f 80f
6:50am 4.5ft 7s 6s 11 16 mph 1012.7mb 83f 81f
5:50am 4.5ft 8s 6s 9 13 mph 1012.8mb 83f 81f
4:50am 4.5ft 8s 6s 4 7 mph 1013.3mb 83f 82f
2:50am 4ft 8s 5s 13 16 mph 1013.9mb 83f 82f
1:50am 4.5ft 8s 5s 11 13 mph 1014.2mb 83f 82f
12:50am 4.5ft 8s 5s 13 16 mph 1013.9mb 83f 83f
Wed 08/24 11:50pm 4.5ft 8s 5s 16 18 mph 1013.5mb 84f 83f
10:50pm 5ft 7s 5s 16 18 mph 1013.1mb 84f 83f
9:50pm 5ft 7s 5s 16 20 mph 1012.6mb 84f 83f
8:50pm 4.5ft 8s 5s 16 18 mph 1012.3mb 84f 83f
7:50pm 5ft 8s 5s 16 18 mph 1012.1mb 84f 83f
6:50pm 5ft 8s 5s 16 18 mph 1012.4mb 84f 83f
5:50pm 5ft 8s 5s 18 20 mph 1012.3mb 84f 83f
4:50pm 5.5ft 8s 5s 16 20 mph 1012.8mb 84f 83f
3:50pm 6ft 8s 5s 18 20 mph 1013.1mb 84f 83f
2:50pm 5.5ft 8s 5s 18 22 mph 1013.8mb 84f 83f
1:50pm 6ft 8s 6s 20 22 mph 1014mb 84f 83f
12:50pm 5.5ft 8s 5s 18 22 mph 1014.3mb 84f 83f
11:50am 6ft 8s 5s 20 22 mph 1014mb 83f 83f
10:50am 6ft 8s 5s 18 22 mph 1013.7mb 83f 83f
9:50am 5ft 8s 6s 16 20 mph 1013.5mb 83f 82f
8:50am 5.5ft 8s 6s 13 16 mph 1013.4mb 83f 79f
7:50am 5ft 8s 5s 13 18 mph 1013mb 83f 80f
6:50am 5ft 8s 6s 11 16 mph 1012.7mb 83f 81f
5:50am 5ft 7s 5s 13 22 mph 1012.7mb 83f 81f
4:50am 5ft 8s 5s 16 18 mph 1012.9mb 83f 82f
3:50am 4.5ft 8s 6s 16 18 mph 1013.2mb 83f 82f
2:50am 5ft 8s 6s 13 20 mph 1013.8mb 83f 83f
1:50am 4.5ft 8s 6s 13 16 mph 1014.2mb 84f 83f
12:50am 4.5ft 8s 6s 13 16 mph 1014mb 84f 83f
Tue 08/23 11:50pm 4.5ft 8s 6s 16 18 mph 1013.6mb 84f 83f
10:50pm 4.5ft 8s 6s 13 16 mph 1013.1mb 84f 83f
9:50pm 4.5ft 8s 6s 13 16 mph 1012.5mb 84f 83f
8:50pm 4.5ft 8s 6s 11 13 mph 1012.2mb 84f 83f
7:50pm 4.5ft 8s 6s 11 13 mph 1011.9mb 84f 83f
6:50pm 4.5ft 8s 6s 11
mph
1012.4mb 84f 83f
5:50pm 4.5ft 8s 6s 13 16 mph 1012.6mb 84f 83f
4:50pm 4.5ft 8s 6s 11
mph
1012.9mb 84f 82f
3:50pm 4.5ft 8s 6s 9 11 mph 1013.6mb 84f 82f
2:50pm 5ft 9s 7s 9 11 mph 1013.8mb 84f 82f
1:50pm 5ft 9s 6s 7 11 mph 1014.3mb 84f 81f
12:50pm 5ft 9s 6s 13 16 mph 1014.2mb 84f 82f
11:50am 5ft 8s 6s 13 16 mph 1013.8mb 84f 82f
10:50am 5ft 9s 6s 13
mph
1013.2mb 84f 82f
9:50am 4.5ft 8s 6s 13 16 mph 1012.5mb 84f 82f
8:50am 4.5ft 8s 6s 13 18 mph 1012mb 83f 82f
7:50am 4.5ft 9s 6s 13 16 mph 1011.9mb 83f 82f
6:50am 4.5ft 8s 6s 13 16 mph 1011.6mb 83f 82f
5:50am 4ft 8s 6s 16 18 mph 1011.2mb 83f 82f
4:50am 4.5ft 7s 6s 13 16 mph 1012.2mb 83f 81f
3:50am 4ft 7s 6s 13 16 mph 1012.8mb 83f 82f
2:50am 3.5ft 8s 6s 13 16 mph 1013.2mb 84f 83f
1:50am 3.5ft 8s 6s 11
mph
1013.3mb 84f 82f
12:50am 3.5ft 8s 6s 11
mph
1013.1mb 84f 82f
Mon 08/22 11:50pm 3.5ft 8s 6s 4
mph
1012.5mb 84f 82f
10:50pm 3.5ft 8s 6s 2 4 mph 1012.4mb 84f 82f
9:50pm 3.5ft 8s 6s 2
mph
1011.8mb 84f 82f
8:50pm 3.5ft 8s 6s 2 4 mph 1011.9mb 84f 82f
7:50pm 3.5ft 8s 6s 4
mph
1011.5mb 84f 82f
6:50pm 3.5ft 8s 6s 7 9 mph 1011.6mb 84f 82f
5:50pm 3.5ft 8s 6s 7 9 mph 1011.8mb 85f 82f
4:50pm 3.5ft 8s 6s 2 4 mph 1012.8mb 85f 81f
3:50pm 3.5ft 8s 6s 13 18 mph 1013.2mb 85f 80f
2:50pm 3.5ft 8s 6s 2
mph
1013.6mb 85f 81f
1:50pm 3.5ft 8s 6s 13 16 mph 1014mb 84f 81f
12:50pm 4ft 7s 6s 11
mph
1013.9mb 83f 81f
11:50am 3.5ft 8s 6s 11 13 mph 1013.7mb 83f 83f
10:50am 3.5ft 8s 6s 11 13 mph 1013.3mb 83f 83f
9:50am 4.5ft 8s 6s 13 16 mph 1012.7mb 83f 82f
8:50am 4ft 8s 6s 16 18 mph 1012.3mb 83f 82f
7:50am 4.5ft 8s 6s 13 16 mph 1012.2mb 83f 82f
6:50am 4.5ft 8s 6s 13 16 mph 1012.3mb 83f 82f
5:50am 3.5ft 8s 6s 11 13 mph 1012.6mb 83f 82f
4:50am 4ft 9s 6s 11 13 mph 1013.6mb 83f 82f
2:50am 4ft 8s 6s 11 13 mph 1015.2mb 84f 83f
1:50am 3.5ft 8s 6s 11 13 mph 1015.3mb 84f 83f
12:50am 4ft 8s 6s 13 16 mph 1015mb 84f 83f
Sun 08/21 11:50pm 3.5ft 9s 6s 11 13 mph 1014.5mb 84f 83f
10:50pm 4ft 8s 7s 11 13 mph 1013.9mb 84f 83f
9:50pm 4ft 8s 7s 11 13 mph 1013.6mb 84f 83f
8:50pm 4ft 8s 6s 9 11 mph 1013.2mb 84f 83f
7:50pm 4ft 8s 7s 9 11 mph 1012.8mb 85f 83f
6:50pm 3.5ft 11s 7s 9 11 mph 1012.9mb 85f 83f
5:50pm 4ft 8s 7s 9 11 mph 1013.2mb 85f 83f
4:50pm 4.5ft 8s 7s 7 9 mph 1013.5mb 84f 83f
3:50pm 4ft 8s 7s 9 11 mph 1014mb 84f 83f
2:50pm 4.5ft 8s 7s 9 11 mph 1014.4mb 84f 83f
1:50pm 4.5ft 8s 7s 9 11 mph 1014.4mb 84f 83f
12:50pm 4.5ft 9s 7s 9 11 mph 1014mb 83f 82f